createdAt,value
2022-09-23T00:00:44.608Z,8.82
2022-09-23T00:06:08.373Z,8.76
2022-09-23T00:11:01.305Z,8.81
2022-09-23T00:16:01.232Z,8.84
2022-09-23T00:21:01.156Z,8.81
2022-09-23T00:26:01.090Z,8.70
2022-09-23T00:31:01.042Z,8.58
2022-09-23T00:36:00.946Z,8.53
2022-09-23T00:41:00.878Z,8.58
2022-09-23T00:46:00.862Z,8.64
2022-09-23T00:51:00.733Z,8.67
2022-09-23T00:56:00.755Z,8.60
2022-09-23T01:01:00.696Z,8.56
2022-09-23T01:06:00.565Z,8.56
2022-09-23T01:11:00.502Z,8.51
2022-09-23T01:16:00.401Z,8.52
2022-09-23T01:21:00.344Z,8.52
2022-09-23T01:26:00.311Z,8.49
2022-09-23T01:31:00.281Z,8.46
2022-09-23T01:36:00.151Z,8.44
2022-09-23T01:41:00.077Z,8.41
2022-09-23T01:46:00.023Z,8.42
2022-09-23T01:50:59.973Z,8.44
2022-09-23T01:55:59.867Z,8.42
2022-09-23T02:00:59.914Z,8.33
2022-09-23T02:05:59.779Z,8.24
2022-09-23T02:10:59.721Z,8.24
2022-09-23T02:15:59.602Z,8.18
2022-09-23T02:20:59.548Z,8.08
2022-09-23T02:25:59.519Z,8.06
2022-09-23T02:30:59.380Z,8.05
2022-09-23T02:35:59.357Z,8.05
2022-09-23T02:40:59.279Z,8.08
2022-09-23T02:45:59.291Z,8.09
2022-09-23T02:50:59.175Z,8.13
2022-09-23T02:55:59.067Z,8.23
2022-09-23T03:00:59.055Z,8.27
2022-09-23T03:05:59.001Z,8.27
2022-09-23T03:10:58.885Z,8.18
2022-09-23T03:15:58.804Z,8.13
2022-09-23T03:20:58.737Z,8.08
2022-09-23T03:25:58.657Z,8.03
2022-09-23T03:30:58.608Z,7.87
2022-09-23T03:35:58.546Z,7.75
2022-09-23T03:40:58.474Z,7.70
2022-09-23T03:45:58.429Z,7.72
2022-09-23T03:50:58.345Z,7.77
2022-09-23T03:55:58.294Z,7.76
2022-09-23T04:00:58.314Z,7.70
2022-09-23T04:05:58.158Z,7.60
2022-09-23T04:10:58.074Z,7.63
2022-09-23T04:16:07.094Z,7.51
2022-09-23T04:20:59.959Z,7.45
2022-09-23T04:25:59.935Z,7.40
2022-09-23T04:30:59.868Z,7.40
2022-09-23T04:35:59.778Z,7.45
2022-09-23T04:40:59.703Z,7.47
2022-09-23T04:45:59.626Z,7.48
2022-09-23T04:50:59.564Z,7.48
2022-09-23T04:55:59.512Z,7.38
2022-09-23T05:01:04.361Z,7.32
2022-09-23T05:06:00.394Z,7.38
2022-09-23T05:10:59.272Z,7.33
2022-09-23T05:15:59.319Z,7.25
2022-09-23T05:20:59.177Z,7.25
2022-09-23T05:25:59.091Z,7.28
2022-09-23T05:30:59.077Z,7.28
2022-09-23T05:35:59.023Z,7.35
2022-09-23T05:40:58.935Z,7.35
2022-09-23T05:45:58.850Z,7.39
2022-09-23T05:50:58.767Z,7.39
2022-09-23T05:55:58.905Z,7.38
2022-09-23T06:00:58.630Z,7.43
2022-09-23T06:05:58.557Z,7.58
2022-09-23T06:10:58.493Z,7.70
2022-09-23T06:15:58.549Z,7.70
2022-09-23T06:20:58.429Z,7.83
2022-09-23T06:25:58.306Z,8.00
2022-09-23T06:30:58.274Z,8.09
2022-09-23T06:35:59.858Z,8.18
2022-09-23T06:40:58.105Z,8.31
2022-09-23T06:45:58.029Z,8.53
2022-09-23T06:50:57.965Z,9.54
2022-09-23T06:55:57.923Z,11.08
2022-09-23T07:00:57.969Z,12.50
2022-09-23T07:05:57.814Z,13.59
2022-09-23T07:10:57.695Z,14.07
2022-09-23T07:15:57.686Z,14.94
2022-09-23T07:20:57.562Z,15.58
2022-09-23T07:25:57.482Z,16.02
2022-09-23T07:31:00.711Z,16.51
2022-09-23T07:35:57.348Z,16.75
2022-09-23T07:40:57.313Z,17.01
2022-09-23T07:45:57.255Z,17.06
2022-09-23T07:50:57.141Z,17.05
2022-09-23T07:55:57.075Z,16.87
2022-09-23T08:00:57.022Z,16.74
2022-09-23T08:05:56.941Z,17.34
2022-09-23T08:10:56.868Z,17.16
2022-09-23T08:15:56.928Z,18.04
2022-09-23T08:20:56.793Z,19.26
2022-09-23T08:25:59.221Z,19.58
2022-09-23T08:30:56.720Z,20.25
2022-09-23T08:35:56.596Z,21.22
2022-09-23T08:40:56.484Z,21.39
2022-09-23T08:45:56.439Z,21.24
2022-09-23T08:50:56.374Z,21.83
2022-09-23T08:55:56.275Z,22.11
2022-09-23T09:00:56.218Z,22.65
2022-09-23T09:05:56.137Z,23.27
2022-09-23T09:10:56.081Z,22.75
2022-09-23T09:15:56.045Z,22.72
2022-09-23T09:20:55.943Z,23.08
2022-09-23T09:25:56.016Z,24.30
2022-09-23T09:30:56.026Z,24.42
2022-09-23T09:35:55.721Z,24.17
2022-09-23T09:40:55.767Z,23.31
2022-09-23T09:45:58.050Z,22.54
2022-09-23T09:50:55.607Z,23.41
2022-09-23T09:55:55.410Z,22.93
2022-09-23T10:00:55.384Z,22.32
2022-09-23T10:05:55.267Z,22.18
2022-09-23T10:10:55.228Z,21.22
2022-09-23T10:15:55.142Z,21.21
2022-09-23T10:20:55.065Z,22.10
2022-09-23T10:25:55.009Z,22.29
2022-09-23T10:30:54.984Z,22.39
2022-09-23T10:35:54.851Z,22.94
2022-09-23T10:40:54.889Z,22.94
2022-09-23T10:45:54.769Z,23.12
2022-09-23T10:50:54.688Z,23.21
2022-09-23T10:55:54.636Z,22.87
2022-09-23T11:00:54.578Z,22.45
2022-09-23T11:05:54.480Z,22.23
2022-09-23T11:10:54.415Z,22.65
2022-09-23T11:15:54.338Z,22.57
2022-09-23T11:20:54.277Z,22.96
2022-09-23T11:25:54.229Z,23.08
2022-09-23T11:30:54.199Z,23.31
2022-09-23T11:35:54.114Z,23.50
2022-09-23T11:40:54.079Z,24.55
2022-09-23T11:45:53.992Z,23.81
2022-09-23T11:50:53.911Z,23.10
2022-09-23T11:55:58.000Z,21.52
2022-09-23T12:00:59.849Z,21.03
2022-09-23T12:05:54.802Z,21.00
2022-09-23T12:10:53.656Z,21.89
2022-09-23T12:15:53.555Z,22.99
2022-09-23T12:20:53.483Z,23.81
2022-09-23T12:30:36.584Z,24.47
2022-09-23T12:35:36.499Z,23.68
2022-09-23T12:40:36.473Z,22.39
2022-09-23T12:45:36.415Z,22.45
2022-09-23T12:50:36.266Z,23.02
2022-09-23T12:55:36.422Z,22.20
2022-09-23T13:00:36.167Z,21.73
2022-09-23T13:05:36.076Z,21.37
2022-09-23T13:10:36.026Z,21.60
2022-09-23T13:15:36.035Z,21.98
2022-09-23T13:20:35.857Z,21.73
2022-09-23T13:25:35.813Z,21.11
2022-09-23T13:30:35.749Z,21.00
2022-09-23T13:35:35.654Z,21.12
2022-09-23T13:40:35.663Z,21.27
2022-09-23T13:45:35.589Z,21.17
2022-09-23T13:50:35.479Z,21.11
2022-09-23T13:55:35.401Z,20.96
2022-09-23T14:00:35.362Z,21.00
2022-09-23T14:05:35.318Z,21.02
2022-09-23T14:10:35.225Z,21.00
2022-09-23T14:15:35.131Z,20.85
2022-09-23T14:20:35.070Z,20.99
2022-09-23T14:25:34.993Z,20.96
2022-09-23T14:30:34.906Z,20.65
2022-09-23T14:35:34.905Z,20.58
2022-09-23T14:40:34.878Z,20.29
2022-09-23T14:45:34.758Z,20.25
2022-09-23T14:50:34.672Z,20.16
2022-09-23T14:55:34.610Z,20.11
2022-09-23T15:00:34.551Z,19.94
2022-09-23T15:05:34.469Z,19.71
2022-09-23T15:10:34.375Z,19.62
2022-09-23T15:15:34.335Z,19.45
2022-09-23T15:20:34.241Z,19.45
2022-09-23T15:25:34.217Z,19.48
2022-09-23T15:30:34.136Z,19.54
2022-09-23T15:35:35.004Z,19.49
2022-09-23T15:40:34.098Z,19.33
2022-09-23T15:45:34.013Z,19.29
2022-09-23T15:50:33.872Z,19.19
2022-09-23T15:55:33.855Z,19.07
2022-09-23T16:00:33.812Z,18.78
2022-09-23T16:05:33.682Z,18.47
2022-09-23T16:10:34.214Z,18.22
2022-09-23T16:15:33.558Z,18.04
2022-09-23T16:20:33.474Z,17.85
2022-09-23T16:25:33.411Z,17.65
2022-09-23T16:30:33.340Z,17.44
2022-09-23T16:35:33.287Z,17.23
2022-09-23T16:40:33.267Z,17.02
2022-09-23T16:45:33.174Z,16.75
2022-09-23T16:50:33.042Z,16.56
2022-09-23T16:55:33.007Z,16.42
2022-09-23T17:00:32.992Z,16.33
2022-09-23T17:05:33.006Z,16.24
2022-09-23T17:10:32.895Z,16.09
2022-09-23T17:15:32.956Z,15.84
2022-09-23T17:20:32.644Z,15.67
2022-09-23T17:25:32.607Z,15.57
2022-09-23T17:30:32.522Z,15.54
2022-09-23T17:35:32.465Z,15.47
2022-09-23T17:40:32.446Z,15.42
2022-09-23T17:45:32.422Z,15.37
2022-09-23T17:50:32.364Z,15.29
2022-09-23T17:55:32.257Z,15.19
2022-09-23T18:00:32.192Z,15.18
2022-09-23T18:05:32.076Z,15.09
2022-09-23T18:10:32.012Z,15.02
2022-09-23T18:15:32.043Z,14.99
2022-09-23T18:20:31.831Z,14.89
2022-09-23T18:25:39.955Z,14.79
2022-09-23T18:30:32.718Z,14.68
2022-09-23T18:35:31.771Z,14.65
2022-09-23T18:40:31.665Z,14.62
2022-09-23T18:45:31.566Z,14.51
2022-09-23T18:50:31.482Z,14.43
2022-09-23T18:55:31.410Z,14.37
2022-09-23T19:00:31.421Z,14.29
2022-09-23T19:05:31.254Z,14.15
2022-09-23T19:10:31.158Z,14.11
2022-09-23T19:15:31.136Z,13.93
2022-09-23T19:20:31.013Z,13.78
2022-09-23T19:25:30.978Z,13.70
2022-09-23T19:30:30.906Z,13.63
2022-09-23T19:35:31.036Z,13.59
2022-09-23T19:40:30.792Z,13.65
2022-09-23T19:45:30.711Z,13.71
2022-09-23T19:50:30.642Z,13.77
2022-09-23T19:55:30.637Z,13.75
2022-09-23T20:00:30.585Z,13.68
2022-09-23T20:05:30.457Z,13.52
2022-09-23T20:10:30.338Z,13.49
2022-09-23T20:15:30.304Z,13.44
2022-09-23T20:20:30.305Z,13.37
2022-09-23T20:25:30.219Z,13.25
2022-09-23T20:30:30.080Z,13.11
2022-09-23T20:35:30.022Z,12.94
2022-09-23T20:40:30.017Z,12.82
2022-09-23T20:45:29.882Z,12.82
2022-09-23T20:50:29.815Z,12.82
2022-09-23T20:55:29.783Z,12.73
2022-09-23T21:00:29.742Z,12.65
2022-09-23T21:05:29.623Z,12.57
2022-09-23T21:10:29.557Z,12.54
2022-09-23T21:15:29.520Z,12.55
2022-09-23T21:20:29.434Z,12.50
2022-09-23T21:25:30.348Z,12.45
2022-09-23T21:30:29.307Z,12.40
2022-09-23T21:35:29.221Z,12.42
2022-09-23T21:40:29.201Z,12.40
2022-09-23T21:45:29.101Z,12.36
2022-09-23T21:50:29.010Z,12.37
2022-09-23T21:55:28.975Z,12.42
2022-09-23T22:00:28.935Z,12.46
2022-09-23T22:05:28.795Z,12.50
2022-09-23T22:10:28.762Z,12.58
2022-09-23T22:15:28.699Z,12.62
2022-09-23T22:20:28.609Z,12.58
2022-09-23T22:25:28.509Z,12.57
2022-09-23T22:30:28.516Z,12.54
2022-09-23T22:35:28.410Z,12.49
2022-09-23T22:40:28.385Z,12.40
2022-09-23T22:45:28.254Z,12.25
2022-09-23T22:50:28.184Z,12.10
2022-09-23T22:55:28.155Z,12.07
2022-09-23T23:00:28.073Z,12.09
2022-09-23T23:05:28.005Z,12.10
2022-09-23T23:10:27.943Z,12.09
2022-09-23T23:15:28.390Z,12.06
2022-09-23T23:20:28.066Z,11.94
2022-09-23T23:25:27.752Z,11.86
2022-09-23T23:30:27.676Z,11.75
2022-09-23T23:35:28.101Z,11.66
2022-09-23T23:40:27.585Z,11.60
2022-09-23T23:45:27.469Z,11.50
2022-09-23T23:50:27.395Z,11.48
2022-09-23T23:55:27.340Z,11.45
